sensor_id;sensor_type;location;lat;lon;timestamp;P1;durP1;ratioP1;P2;durP2;ratioP2
79220;SDS011;72175;52.118;5.406;2023-10-13T00:02:10;3.45;;;0.95;;
79220;SDS011;72175;52.118;5.406;2023-10-13T00:04:37;3.25;;;1.17;;
79220;SDS011;72175;52.118;5.406;2023-10-13T00:07:03;4.80;;;1.30;;
79220;SDS011;72175;52.118;5.406;2023-10-13T00:09:35;3.13;;;1.08;;
79220;SDS011;72175;52.118;5.406;2023-10-13T00:12:07;3.25;;;1.10;;
79220;SDS011;72175;52.118;5.406;2023-10-13T00:14:40;3.80;;;1.10;;
79220;SDS011;72175;52.118;5.406;2023-10-13T00:17:08;4.05;;;1.23;;
79220;SDS011;72175;52.118;5.406;2023-10-13T00:19:37;3.38;;;1.05;;
79220;SDS011;72175;52.118;5.406;2023-10-13T00:22:06;4.45;;;0.73;;
79220;SDS011;72175;52.118;5.406;2023-10-13T00:24:37;4.38;;;1.00;;
79220;SDS011;72175;52.118;5.406;2023-10-13T00:27:18;3.28;;;1.10;;
79220;SDS011;72175;52.118;5.406;2023-10-13T00:30:03;2.97;;;0.90;;
79220;SDS011;72175;52.118;5.406;2023-10-13T00:32:43;3.00;;;0.55;;
79220;SDS011;72175;52.118;5.406;2023-10-13T00:35:13;3.42;;;1.70;;
79220;SDS011;72175;52.118;5.406;2023-10-13T00:37:41;3.83;;;1.42;;
79220;SDS011;72175;52.118;5.406;2023-10-13T00:40:11;3.28;;;0.80;;
79220;SDS011;72175;52.118;5.406;2023-10-13T00:42:58;3.03;;;0.73;;
79220;SDS011;72175;52.118;5.406;2023-10-13T00:45:46;3.72;;;0.90;;
79220;SDS011;72175;52.118;5.406;2023-10-13T00:48:35;3.97;;;1.00;;
79220;SDS011;72175;52.118;5.406;2023-10-13T00:51:09;2.63;;;0.68;;
79220;SDS011;72175;52.118;5.406;2023-10-13T00:53:56;4.43;;;0.82;;
79220;SDS011;72175;52.118;5.406;2023-10-13T00:56:23;2.58;;;0.85;;
79220;SDS011;72175;52.118;5.406;2023-10-13T00:58:57;3.03;;;1.10;;
79220;SDS011;72175;52.118;5.406;2023-10-13T01:01:29;2.78;;;0.82;;
79220;SDS011;72175;52.118;5.406;2023-10-13T01:04:07;2.95;;;0.98;;
79220;SDS011;72175;52.118;5.406;2023-10-13T01:06:38;3.28;;;1.27;;
79220;SDS011;72175;52.118;5.406;2023-10-13T01:09:09;3.53;;;1.10;;
79220;SDS011;72175;52.118;5.406;2023-10-13T01:11:47;3.00;;;0.98;;
79220;SDS011;72175;52.118;5.406;2023-10-13T01:14:19;3.22;;;1.30;;
79220;SDS011;72175;52.118;5.406;2023-10-13T01:16:49;3.38;;;0.85;;
79220;SDS011;72175;52.118;5.406;2023-10-13T01:19:19;3.58;;;1.23;;
79220;SDS011;72175;52.118;5.406;2023-10-13T01:21:51;4.10;;;1.15;;
79220;SDS011;72175;52.118;5.406;2023-10-13T01:24:30;2.55;;;0.55;;
79220;SDS011;72175;52.118;5.406;2023-10-13T01:27:06;3.90;;;0.90;;
79220;SDS011;72175;52.118;5.406;2023-10-13T01:29:44;2.95;;;1.00;;
79220;SDS011;72175;52.118;5.406;2023-10-13T01:32:16;3.30;;;1.13;;
79220;SDS011;72175;52.118;5.406;2023-10-13T01:34:44;3.67;;;1.23;;
79220;SDS011;72175;52.118;5.406;2023-10-13T01:37:13;2.85;;;0.95;;
79220;SDS011;72175;52.118;5.406;2023-10-13T01:39:42;3.90;;;0.93;;
79220;SDS011;72175;52.118;5.406;2023-10-13T01:42:13;2.60;;;0.80;;
79220;SDS011;72175;52.118;5.406;2023-10-13T01:44:46;2.42;;;0.57;;
79220;SDS011;72175;52.118;5.406;2023-10-13T01:47:12;3.35;;;1.48;;
79220;SDS011;72175;52.118;5.406;2023-10-13T01:49:39;3.80;;;0.95;;
79220;SDS011;72175;52.118;5.406;2023-10-13T01:52:14;3.35;;;1.05;;
79220;SDS011;72175;52.118;5.406;2023-10-13T01:54:45;3.10;;;1.13;;
79220;SDS011;72175;52.118;5.406;2023-10-13T01:57:12;3.65;;;0.88;;
79220;SDS011;72175;52.118;5.406;2023-10-13T01:59:46;3.20;;;1.10;;
79220;SDS011;72175;52.118;5.406;2023-10-13T02:02:14;2.92;;;1.30;;
79220;SDS011;72175;52.118;5.406;2023-10-13T02:04:55;2.65;;;0.88;;
79220;SDS011;72175;52.118;5.406;2023-10-13T02:07:24;3.20;;;0.80;;
79220;SDS011;72175;52.118;5.406;2023-10-13T02:09:56;3.10;;;0.70;;
79220;SDS011;72175;52.118;5.406;2023-10-13T02:12:23;2.42;;;0.75;;
79220;SDS011;72175;52.118;5.406;2023-10-13T02:14:55;2.50;;;1.38;;
79220;SDS011;72175;52.118;5.406;2023-10-13T02:17:21;3.17;;;0.77;;
79220;SDS011;72175;52.118;5.406;2023-10-13T02:19:52;2.95;;;0.73;;
79220;SDS011;72175;52.118;5.406;2023-10-13T02:22:20;2.92;;;1.17;;
79220;SDS011;72175;52.118;5.406;2023-10-13T02:24:55;4.25;;;0.90;;
79220;SDS011;72175;52.118;5.406;2023-10-13T02:27:28;2.90;;;0.90;;
79220;SDS011;72175;52.118;5.406;2023-10-13T02:29:55;3.08;;;1.15;;
79220;SDS011;72175;52.118;5.406;2023-10-13T02:32:27;3.28;;;1.27;;
79220;SDS011;72175;52.118;5.406;2023-10-13T02:34:56;2.67;;;0.85;;
79220;SDS011;72175;52.118;5.406;2023-10-13T02:37:32;2.92;;;1.25;;
79220;SDS011;72175;52.118;5.406;2023-10-13T02:39:58;2.80;;;0.80;;
79220;SDS011;72175;52.118;5.406;2023-10-13T02:42:26;3.05;;;1.15;;
79220;SDS011;72175;52.118;5.406;2023-10-13T02:44:54;2.95;;;0.80;;
79220;SDS011;72175;52.118;5.406;2023-10-13T02:47:24;3.05;;;0.70;;
79220;SDS011;72175;52.118;5.406;2023-10-13T02:49:50;4.18;;;0.90;;
79220;SDS011;72175;52.118;5.406;2023-10-13T02:52:17;3.05;;;1.02;;
79220;SDS011;72175;52.118;5.406;2023-10-13T02:54:44;3.78;;;1.33;;
79220;SDS011;72175;52.118;5.406;2023-10-13T02:57:16;3.20;;;1.02;;
79220;SDS011;72175;52.118;5.406;2023-10-13T02:59:44;3.85;;;0.82;;
79220;SDS011;72175;52.118;5.406;2023-10-13T03:02:14;2.60;;;0.70;;
79220;SDS011;72175;52.118;5.406;2023-10-13T03:04:46;2.20;;;0.32;;
79220;SDS011;72175;52.118;5.406;2023-10-13T03:07:13;2.78;;;0.70;;
79220;SDS011;72175;52.118;5.406;2023-10-13T03:09:50;3.70;;;1.52;;
79220;SDS011;72175;52.118;5.406;2023-10-13T03:12:18;3.72;;;0.93;;
79220;SDS011;72175;52.118;5.406;2023-10-13T03:14:45;3.10;;;1.25;;
79220;SDS011;72175;52.118;5.406;2023-10-13T03:17:15;2.58;;;0.57;;
79220;SDS011;72175;52.118;5.406;2023-10-13T03:19:48;3.40;;;0.90;;
79220;SDS011;72175;52.118;5.406;2023-10-13T03:24:57;2.65;;;0.82;;
79220;SDS011;72175;52.118;5.406;2023-10-13T03:27:39;3.08;;;1.08;;
79220;SDS011;72175;52.118;5.406;2023-10-13T03:30:14;2.90;;;0.90;;
79220;SDS011;72175;52.118;5.406;2023-10-13T03:32:42;3.25;;;0.90;;
79220;SDS011;72175;52.118;5.406;2023-10-13T03:35:14;3.72;;;0.80;;
79220;SDS011;72175;52.118;5.406;2023-10-13T03:37:51;2.63;;;0.80;;
79220;SDS011;72175;52.118;5.406;2023-10-13T03:40:18;2.75;;;0.80;;
79220;SDS011;72175;52.118;5.406;2023-10-13T03:42:52;3.03;;;1.20;;
79220;SDS011;72175;52.118;5.406;2023-10-13T03:48:07;3.65;;;0.93;;
79220;SDS011;72175;52.118;5.406;2023-10-13T03:50:42;2.65;;;0.80;;
79220;SDS011;72175;52.118;5.406;2023-10-13T03:53:28;4.07;;;1.17;;
79220;SDS011;72175;52.118;5.406;2023-10-13T03:58:39;3.00;;;1.08;;
79220;SDS011;72175;52.118;5.406;2023-10-13T04:01:09;3.15;;;0.70;;
79220;SDS011;72175;52.118;5.406;2023-10-13T04:03:42;2.80;;;0.85;;
79220;SDS011;72175;52.118;5.406;2023-10-13T04:06:23;2.33;;;0.80;;
79220;SDS011;72175;52.118;5.406;2023-10-13T04:09:13;3.42;;;0.90;;
79220;SDS011;72175;52.118;5.406;2023-10-13T04:12:06;2.45;;;0.80;;
79220;SDS011;72175;52.118;5.406;2023-10-13T04:14:40;3.25;;;1.02;;
79220;SDS011;72175;52.118;5.406;2023-10-13T04:17:29;3.08;;;0.90;;
79220;SDS011;72175;52.118;5.406;2023-10-13T04:20:00;2.38;;;0.63;;
79220;SDS011;72175;52.118;5.406;2023-10-13T04:22:32;2.28;;;0.75;;
79220;SDS011;72175;52.118;5.406;2023-10-13T04:25:19;3.25;;;1.00;;
79220;SDS011;72175;52.118;5.406;2023-10-13T04:28:06;3.05;;;0.70;;
79220;SDS011;72175;52.118;5.406;2023-10-13T04:33:24;2.85;;;1.02;;
79220;SDS011;72175;52.118;5.406;2023-10-13T04:38:41;3.03;;;1.00;;
79220;SDS011;72175;52.118;5.406;2023-10-13T04:41:24;2.88;;;1.13;;
79220;SDS011;72175;52.118;5.406;2023-10-13T04:43:51;3.30;;;1.13;;
79220;SDS011;72175;52.118;5.406;2023-10-13T04:46:31;3.28;;;1.30;;
79220;SDS011;72175;52.118;5.406;2023-10-13T04:49:13;2.67;;;0.73;;
79220;SDS011;72175;52.118;5.406;2023-10-13T04:52:01;2.88;;;0.85;;
79220;SDS011;72175;52.118;5.406;2023-10-13T04:54:39;3.42;;;0.93;;
79220;SDS011;72175;52.118;5.406;2023-10-13T04:57:21;2.75;;;0.68;;
79220;SDS011;72175;52.118;5.406;2023-10-13T05:00:03;2.38;;;0.55;;
79220;SDS011;72175;52.118;5.406;2023-10-13T05:05:12;3.40;;;0.95;;
79220;SDS011;72175;52.118;5.406;2023-10-13T05:07:48;2.88;;;1.02;;
79220;SDS011;72175;52.118;5.406;2023-10-13T05:10:34;3.42;;;1.35;;
79220;SDS011;72175;52.118;5.406;2023-10-13T05:13:30;3.90;;;0.90;;
79220;SDS011;72175;52.118;5.406;2023-10-13T05:16:15;2.58;;;0.90;;
79220;SDS011;72175;52.118;5.406;2023-10-13T05:19:00;3.28;;;1.08;;
79220;SDS011;72175;52.118;5.406;2023-10-13T05:21:46;3.20;;;0.90;;
79220;SDS011;72175;52.118;5.406;2023-10-13T05:24:31;2.65;;;0.73;;
79220;SDS011;72175;52.118;5.406;2023-10-13T05:27:17;2.70;;;0.85;;
79220;SDS011;72175;52.118;5.406;2023-10-13T05:30:02;2.35;;;0.50;;
79220;SDS011;72175;52.118;5.406;2023-10-13T05:32:47;3.90;;;0.80;;
79220;SDS011;72175;52.118;5.406;2023-10-13T05:35:32;3.20;;;0.70;;
79220;SDS011;72175;52.118;5.406;2023-10-13T05:38:17;2.42;;;0.90;;
79220;SDS011;72175;52.118;5.406;2023-10-13T05:41:04;2.50;;;0.40;;
79220;SDS011;72175;52.118;5.406;2023-10-13T05:43:51;2.70;;;0.73;;
79220;SDS011;72175;52.118;5.406;2023-10-13T05:46:44;2.20;;;0.65;;
79220;SDS011;72175;52.118;5.406;2023-10-13T05:49:36;3.25;;;0.88;;
79220;SDS011;72175;52.118;5.406;2023-10-13T05:52:16;3.03;;;0.65;;
79220;SDS011;72175;52.118;5.406;2023-10-13T05:55:06;3.28;;;0.85;;
79220;SDS011;72175;52.118;5.406;2023-10-13T05:57:51;2.67;;;0.80;;
79220;SDS011;72175;52.118;5.406;2023-10-13T06:00:39;3.33;;;0.75;;
79220;SDS011;72175;52.118;5.406;2023-10-13T06:03:24;2.75;;;1.05;;
79220;SDS011;72175;52.118;5.406;2023-10-13T06:06:10;2.92;;;0.80;;
79220;SDS011;72175;52.118;5.406;2023-10-13T06:08:55;2.28;;;0.82;;
79220;SDS011;72175;52.118;5.406;2023-10-13T06:11:39;2.97;;;0.98;;
79220;SDS011;72175;52.118;5.406;2023-10-13T06:14:24;2.60;;;0.57;;
79220;SDS011;72175;52.118;5.406;2023-10-13T06:17:09;3.67;;;0.95;;
79220;SDS011;72175;52.118;5.406;2023-10-13T06:19:54;2.95;;;0.70;;
79220;SDS011;72175;52.118;5.406;2023-10-13T06:22:40;2.55;;;0.88;;
79220;SDS011;72175;52.118;5.406;2023-10-13T06:25:25;3.13;;;0.85;;
79220;SDS011;72175;52.118;5.406;2023-10-13T06:28:10;2.97;;;1.25;;
79220;SDS011;72175;52.118;5.406;2023-10-13T06:30:56;3.03;;;1.10;;
79220;SDS011;72175;52.118;5.406;2023-10-13T06:33:25;7.25;;;1.08;;
79220;SDS011;72175;52.118;5.406;2023-10-13T06:35:56;8.48;;;1.58;;
79220;SDS011;72175;52.118;5.406;2023-10-13T06:38:23;13.55;;;2.58;;
79220;SDS011;72175;52.118;5.406;2023-10-13T06:40:50;13.93;;;1.63;;
79220;SDS011;72175;52.118;5.406;2023-10-13T06:43:18;10.98;;;1.73;;
79220;SDS011;72175;52.118;5.406;2023-10-13T06:45:48;9.95;;;1.92;;
79220;SDS011;72175;52.118;5.406;2023-10-13T06:48:27;6.57;;;1.45;;
79220;SDS011;72175;52.118;5.406;2023-10-13T06:50:59;6.22;;;1.20;;
79220;SDS011;72175;52.118;5.406;2023-10-13T06:53:32;7.18;;;1.17;;
79220;SDS011;72175;52.118;5.406;2023-10-13T06:56:14;8.07;;;2.05;;
79220;SDS011;72175;52.118;5.406;2023-10-13T06:58:50;8.20;;;1.33;;
79220;SDS011;72175;52.118;5.406;2023-10-13T07:01:17;5.40;;;1.35;;
79220;SDS011;72175;52.118;5.406;2023-10-13T07:03:48;5.80;;;1.35;;
79220;SDS011;72175;52.118;5.406;2023-10-13T07:06:23;7.43;;;1.35;;
79220;SDS011;72175;52.118;5.406;2023-10-13T07:08:51;8.18;;;1.23;;
79220;SDS011;72175;52.118;5.406;2023-10-13T07:11:19;8.32;;;1.05;;
79220;SDS011;72175;52.118;5.406;2023-10-13T07:14:01;6.57;;;1.10;;
79220;SDS011;72175;52.118;5.406;2023-10-13T07:17:24;5.38;;;0.88;;
79220;SDS011;72175;52.118;5.406;2023-10-13T07:19:32;4.55;;;1.08;;
79220;SDS011;72175;52.118;5.406;2023-10-13T07:22:01;5.35;;;0.85;;
79220;SDS011;72175;52.118;5.406;2023-10-13T07:24:47;6.00;;;1.15;;
79220;SDS011;72175;52.118;5.406;2023-10-13T07:27:19;6.55;;;0.93;;
79220;SDS011;72175;52.118;5.406;2023-10-13T07:29:50;4.82;;;1.10;;
79220;SDS011;72175;52.118;5.406;2023-10-13T07:32:25;4.03;;;1.02;;
79220;SDS011;72175;52.118;5.406;2023-10-13T07:34:53;2.80;;;0.90;;
79220;SDS011;72175;52.118;5.406;2023-10-13T07:37:22;4.05;;;1.27;;
79220;SDS011;72175;52.118;5.406;2023-10-13T07:39:55;3.17;;;1.05;;
79220;SDS011;72175;52.118;5.406;2023-10-13T07:42:28;5.22;;;1.08;;
79220;SDS011;72175;52.118;5.406;2023-10-13T07:45:06;3.67;;;0.88;;
79220;SDS011;72175;52.118;5.406;2023-10-13T07:47:34;4.78;;;1.08;;
79220;SDS011;72175;52.118;5.406;2023-10-13T07:50:00;5.78;;;1.52;;
79220;SDS011;72175;52.118;5.406;2023-10-13T07:52:27;4.38;;;1.10;;
79220;SDS011;72175;52.118;5.406;2023-10-13T07:55:07;4.28;;;0.95;;
79220;SDS011;72175;52.118;5.406;2023-10-13T07:57:37;5.68;;;1.10;;
79220;SDS011;72175;52.118;5.406;2023-10-13T08:00:20;5.93;;;1.10;;
79220;SDS011;72175;52.118;5.406;2023-10-13T08:03:08;6.22;;;0.55;;
79220;SDS011;72175;52.118;5.406;2023-10-13T08:05:44;5.57;;;1.00;;
79220;SDS011;72175;52.118;5.406;2023-10-13T08:08:33;5.63;;;1.52;;
79220;SDS011;72175;52.118;5.406;2023-10-13T08:11:07;6.25;;;1.23;;
79220;SDS011;72175;52.118;5.406;2023-10-13T08:13:51;7.95;;;1.70;;
79220;SDS011;72175;52.118;5.406;2023-10-13T08:17:03;5.85;;;1.05;;
79220;SDS011;72175;52.118;5.406;2023-10-13T08:19:40;4.63;;;0.93;;
79220;SDS011;72175;52.118;5.406;2023-10-13T08:22:08;3.85;;;1.13;;
79220;SDS011;72175;52.118;5.406;2023-10-13T08:24:51;6.35;;;1.33;;
79220;SDS011;72175;52.118;5.406;2023-10-13T08:27:19;4.32;;;1.15;;
79220;SDS011;72175;52.118;5.406;2023-10-13T08:30:02;5.38;;;1.50;;
79220;SDS011;72175;52.118;5.406;2023-10-13T08:32:48;5.13;;;1.20;;
79220;SDS011;72175;52.118;5.406;2023-10-13T08:35:23;6.30;;;1.00;;
79220;SDS011;72175;52.118;5.406;2023-10-13T08:37:56;5.85;;;1.35;;
79220;SDS011;72175;52.118;5.406;2023-10-13T08:40:43;7.32;;;1.55;;
79220;SDS011;72175;52.118;5.406;2023-10-13T08:43:42;4.13;;;1.55;;
79220;SDS011;72175;52.118;5.406;2023-10-13T08:46:16;6.40;;;1.00;;
79220;SDS011;72175;52.118;5.406;2023-10-13T08:48:57;5.40;;;1.10;;
79220;SDS011;72175;52.118;5.406;2023-10-13T08:51:45;4.85;;;1.45;;
79220;SDS011;72175;52.118;5.406;2023-10-13T08:54:17;5.88;;;1.00;;
79220;SDS011;72175;52.118;5.406;2023-10-13T08:57:01;3.95;;;1.10;;
79220;SDS011;72175;52.118;5.406;2023-10-13T08:59:47;4.57;;;1.10;;
79220;SDS011;72175;52.118;5.406;2023-10-13T09:02:23;5.80;;;1.33;;
79220;SDS011;72175;52.118;5.406;2023-10-13T09:05:10;3.92;;;1.30;;
79220;SDS011;72175;52.118;5.406;2023-10-13T09:10:36;4.57;;;1.00;;
79220;SDS011;72175;52.118;5.406;2023-10-13T09:13:11;7.95;;;2.03;;
79220;SDS011;72175;52.118;5.406;2023-10-13T09:15:45;3.80;;;1.23;;
79220;SDS011;72175;52.118;5.406;2023-10-13T09:18:27;4.60;;;1.13;;
79220;SDS011;72175;52.118;5.406;2023-10-13T09:21:14;5.55;;;1.58;;
79220;SDS011;72175;52.118;5.406;2023-10-13T09:24:14;3.80;;;0.90;;
79220;SDS011;72175;52.118;5.406;2023-10-13T09:29:27;5.90;;;0.88;;
79220;SDS011;72175;52.118;5.406;2023-10-13T09:31:59;6.80;;;1.52;;
79220;SDS011;72175;52.118;5.406;2023-10-13T09:34:29;4.90;;;1.02;;
79220;SDS011;72175;52.118;5.406;2023-10-13T09:37:00;5.55;;;1.23;;
79220;SDS011;72175;52.118;5.406;2023-10-13T09:39:29;3.10;;;0.77;;
79220;SDS011;72175;52.118;5.406;2023-10-13T09:41:56;3.53;;;1.02;;
79220;SDS011;72175;52.118;5.406;2023-10-13T09:44:26;6.47;;;1.40;;
79220;SDS011;72175;52.118;5.406;2023-10-13T09:47:01;5.43;;;1.40;;
79220;SDS011;72175;52.118;5.406;2023-10-13T09:49:39;5.53;;;1.38;;
79220;SDS011;72175;52.118;5.406;2023-10-13T09:52:13;5.43;;;1.17;;
79220;SDS011;72175;52.118;5.406;2023-10-13T09:58:03;7.53;;;1.40;;
79220;SDS011;72175;52.118;5.406;2023-10-13T10:00:42;4.50;;;1.10;;
79220;SDS011;72175;52.118;5.406;2023-10-13T10:03:13;5.00;;;1.25;;
79220;SDS011;72175;52.118;5.406;2023-10-13T10:06:08;5.13;;;1.35;;
79220;SDS011;72175;52.118;5.406;2023-10-13T10:08:43;6.57;;;1.02;;
79220;SDS011;72175;52.118;5.406;2023-10-13T10:11:35;3.72;;;1.10;;
79220;SDS011;72175;52.118;5.406;2023-10-13T10:17:22;5.97;;;1.23;;
79220;SDS011;72175;52.118;5.406;2023-10-13T10:19:49;5.50;;;1.60;;
79220;SDS011;72175;52.118;5.406;2023-10-13T10:22:28;5.75;;;1.52;;
79220;SDS011;72175;52.118;5.406;2023-10-13T10:25:03;6.90;;;1.40;;
79220;SDS011;72175;52.118;5.406;2023-10-13T10:28:08;4.60;;;1.30;;
79220;SDS011;72175;52.118;5.406;2023-10-13T10:30:36;6.40;;;1.58;;
79220;SDS011;72175;52.118;5.406;2023-10-13T10:33:12;6.55;;;1.45;;
79220;SDS011;72175;52.118;5.406;2023-10-13T10:35:43;5.88;;;1.30;;
79220;SDS011;72175;52.118;5.406;2023-10-13T10:38:14;6.60;;;1.88;;
79220;SDS011;72175;52.118;5.406;2023-10-13T10:46:15;5.60;;;1.40;;
79220;SDS011;72175;52.118;5.406;2023-10-13T10:48:44;5.30;;;1.92;;
79220;SDS011;72175;52.118;5.406;2023-10-13T10:51:13;7.75;;;1.60;;
79220;SDS011;72175;52.118;5.406;2023-10-13T10:53:55;4.63;;;1.20;;
79220;SDS011;72175;52.118;5.406;2023-10-13T10:56:24;5.32;;;1.65;;
79220;SDS011;72175;52.118;5.406;2023-10-13T10:59:07;5.78;;;1.40;;
79220;SDS011;72175;52.118;5.406;2023-10-13T11:01:54;6.85;;;0.88;;
79220;SDS011;72175;52.118;5.406;2023-10-13T11:04:20;5.20;;;1.67;;
79220;SDS011;72175;52.118;5.406;2023-10-13T11:06:54;4.68;;;1.67;;
79220;SDS011;72175;52.118;5.406;2023-10-13T11:09:27;6.97;;;1.58;;
79220;SDS011;72175;52.118;5.406;2023-10-13T11:14:34;5.47;;;1.65;;
79220;SDS011;72175;52.118;5.406;2023-10-13T11:17:01;3.97;;;1.30;;
79220;SDS011;72175;52.118;5.406;2023-10-13T11:19:42;5.20;;;1.63;;
79220;SDS011;72175;52.118;5.406;2023-10-13T11:22:09;5.20;;;1.80;;
79220;SDS011;72175;52.118;5.406;2023-10-13T11:24:40;4.75;;;1.60;;
79220;SDS011;72175;52.118;5.406;2023-10-13T11:27:15;7.28;;;1.35;;
79220;SDS011;72175;52.118;5.406;2023-10-13T11:30:05;7.22;;;1.67;;
79220;SDS011;72175;52.118;5.406;2023-10-13T11:32:38;5.72;;;1.77;;
79220;SDS011;72175;52.118;5.406;2023-10-13T11:35:12;4.97;;;1.40;;
79220;SDS011;72175;52.118;5.406;2023-10-13T11:37:50;9.27;;;2.10;;
79220;SDS011;72175;52.118;5.406;2023-10-13T11:40:34;5.18;;;1.77;;
79220;SDS011;72175;52.118;5.406;2023-10-13T11:43:10;6.05;;;1.70;;
79220;SDS011;72175;52.118;5.406;2023-10-13T11:45:41;5.70;;;1.63;;
79220;SDS011;72175;52.118;5.406;2023-10-13T11:48:26;5.63;;;1.27;;
79220;SDS011;72175;52.118;5.406;2023-10-13T11:51:06;6.57;;;1.88;;
79220;SDS011;72175;52.118;5.406;2023-10-13T11:54:06;5.90;;;1.70;;
79220;SDS011;72175;52.118;5.406;2023-10-13T11:56:38;6.15;;;1.50;;
79220;SDS011;72175;52.118;5.406;2023-10-13T11:59:05;4.43;;;1.85;;
79220;SDS011;72175;52.118;5.406;2023-10-13T12:01:32;5.13;;;1.70;;
79220;SDS011;72175;52.118;5.406;2023-10-13T12:04:17;7.50;;;1.67;;
79220;SDS011;72175;52.118;5.406;2023-10-13T12:07:08;5.80;;;1.75;;
79220;SDS011;72175;52.118;5.406;2023-10-13T12:09:43;5.53;;;1.83;;
79220;SDS011;72175;52.118;5.406;2023-10-13T12:12:24;7.28;;;1.90;;
79220;SDS011;72175;52.118;5.406;2023-10-13T12:14:53;5.78;;;1.50;;
79220;SDS011;72175;52.118;5.406;2023-10-13T12:17:23;5.20;;;2.08;;
79220;SDS011;72175;52.118;5.406;2023-10-13T12:19:58;6.47;;;1.52;;
79220;SDS011;72175;52.118;5.406;2023-10-13T12:22:25;7.53;;;1.70;;
79220;SDS011;72175;52.118;5.406;2023-10-13T12:25:02;6.82;;;2.33;;
79220;SDS011;72175;52.118;5.406;2023-10-13T12:27:45;6.68;;;1.48;;
79220;SDS011;72175;52.118;5.406;2023-10-13T12:30:14;6.05;;;1.58;;
79220;SDS011;72175;52.118;5.406;2023-10-13T12:32:49;4.63;;;1.63;;
79220;SDS011;72175;52.118;5.406;2023-10-13T12:35:35;4.88;;;1.83;;
79220;SDS011;72175;52.118;5.406;2023-10-13T12:38:11;6.07;;;2.25;;
79220;SDS011;72175;52.118;5.406;2023-10-13T12:41:06;6.78;;;1.73;;
79220;SDS011;72175;52.118;5.406;2023-10-13T12:44:01;4.72;;;1.70;;
79220;SDS011;72175;52.118;5.406;2023-10-13T12:46:48;7.22;;;1.92;;
79220;SDS011;72175;52.118;5.406;2023-10-13T12:49:34;6.50;;;1.83;;
79220;SDS011;72175;52.118;5.406;2023-10-13T12:52:07;5.28;;;1.70;;
79220;SDS011;72175;52.118;5.406;2023-10-13T12:54:43;7.60;;;2.35;;
79220;SDS011;72175;52.118;5.406;2023-10-13T12:57:16;6.05;;;1.73;;
79220;SDS011;72175;52.118;5.406;2023-10-13T12:59:43;6.63;;;1.58;;
79220;SDS011;72175;52.118;5.406;2023-10-13T13:02:10;6.10;;;1.88;;
79220;SDS011;72175;52.118;5.406;2023-10-13T13:04:41;9.02;;;2.45;;
79220;SDS011;72175;52.118;5.406;2023-10-13T13:07:12;6.22;;;2.53;;
79220;SDS011;72175;52.118;5.406;2023-10-13T13:09:40;5.47;;;1.88;;
79220;SDS011;72175;52.118;5.406;2023-10-13T13:12:07;8.38;;;2.15;;
79220;SDS011;72175;52.118;5.406;2023-10-13T13:14:34;5.45;;;1.65;;
79220;SDS011;72175;52.118;5.406;2023-10-13T13:17:00;6.05;;;2.22;;
79220;SDS011;72175;52.118;5.406;2023-10-13T13:19:35;6.68;;;1.65;;
79220;SDS011;72175;52.118;5.406;2023-10-13T13:22:05;5.63;;;2.10;;
79220;SDS011;72175;52.118;5.406;2023-10-13T13:24:40;5.47;;;1.13;;
79220;SDS011;72175;52.118;5.406;2023-10-13T13:27:13;8.43;;;1.88;;
79220;SDS011;72175;52.118;5.406;2023-10-13T13:29:42;8.10;;;2.17;;
79220;SDS011;72175;52.118;5.406;2023-10-13T13:32:09;5.93;;;2.30;;
79220;SDS011;72175;52.118;5.406;2023-10-13T13:34:45;5.97;;;2.10;;
79220;SDS011;72175;52.118;5.406;2023-10-13T13:37:21;7.75;;;2.15;;
79220;SDS011;72175;52.118;5.406;2023-10-13T13:39:54;7.43;;;1.77;;
79220;SDS011;72175;52.118;5.406;2023-10-13T13:42:20;7.80;;;1.83;;
79220;SDS011;72175;52.118;5.406;2023-10-13T13:44:47;8.15;;;1.85;;
79220;SDS011;72175;52.118;5.406;2023-10-13T13:47:14;8.00;;;2.53;;
79220;SDS011;72175;52.118;5.406;2023-10-13T13:49:42;9.68;;;2.60;;
79220;SDS011;72175;52.118;5.406;2023-10-13T13:52:19;8.57;;;2.50;;
79220;SDS011;72175;52.118;5.406;2023-10-13T13:55:00;9.52;;;2.58;;
79220;SDS011;72175;52.118;5.406;2023-10-13T13:57:30;12.30;;;2.67;;
79220;SDS011;72175;52.118;5.406;2023-10-13T13:59:56;11.18;;;2.33;;
79220;SDS011;72175;52.118;5.406;2023-10-13T14:02:24;7.05;;;2.13;;
79220;SDS011;72175;52.118;5.406;2023-10-13T14:04:52;13.32;;;2.78;;
79220;SDS011;72175;52.118;5.406;2023-10-13T14:07:19;7.97;;;2.25;;
79220;SDS011;72175;52.118;5.406;2023-10-13T14:09:47;6.82;;;2.17;;
79220;SDS011;72175;52.118;5.406;2023-10-13T14:12:18;9.32;;;2.50;;
79220;SDS011;72175;52.118;5.406;2023-10-13T14:15:11;10.50;;;3.03;;
79220;SDS011;72175;52.118;5.406;2023-10-13T14:17:46;10.93;;;2.83;;
79220;SDS011;72175;52.118;5.406;2023-10-13T14:20:16;12.32;;;2.28;;
79220;SDS011;72175;52.118;5.406;2023-10-13T14:22:46;9.65;;;2.65;;
79220;SDS011;72175;52.118;5.406;2023-10-13T14:25:15;8.30;;;2.33;;
79220;SDS011;72175;52.118;5.406;2023-10-13T14:27:45;12.35;;;3.67;;
79220;SDS011;72175;52.118;5.406;2023-10-13T14:30:12;9.18;;;2.60;;
79220;SDS011;72175;52.118;5.406;2023-10-13T14:32:47;13.70;;;3.17;;
79220;SDS011;72175;52.118;5.406;2023-10-13T14:35:14;9.55;;;1.83;;
79220;SDS011;72175;52.118;5.406;2023-10-13T14:37:41;14.52;;;2.95;;
79220;SDS011;72175;52.118;5.406;2023-10-13T14:40:08;10.00;;;1.92;;
79220;SDS011;72175;52.118;5.406;2023-10-13T14:42:39;9.77;;;2.72;;
79220;SDS011;72175;52.118;5.406;2023-10-13T14:45:07;9.73;;;2.47;;
79220;SDS011;72175;52.118;5.406;2023-10-13T14:47:40;10.80;;;3.13;;
79220;SDS011;72175;52.118;5.406;2023-10-13T14:50:07;10.82;;;2.55;;
79220;SDS011;72175;52.118;5.406;2023-10-13T14:52:43;12.68;;;3.20;;
79220;SDS011;72175;52.118;5.406;2023-10-13T14:55:10;15.65;;;3.20;;
79220;SDS011;72175;52.118;5.406;2023-10-13T14:57:48;10.23;;;3.00;;
79220;SDS011;72175;52.118;5.406;2023-10-13T15:00:17;15.00;;;2.67;;
79220;SDS011;72175;52.118;5.406;2023-10-13T15:02:53;13.70;;;3.00;;
79220;SDS011;72175;52.118;5.406;2023-10-13T15:05:21;19.98;;;3.40;;
79220;SDS011;72175;52.118;5.406;2023-10-13T15:07:48;18.13;;;3.63;;
79220;SDS011;72175;52.118;5.406;2023-10-13T15:10:14;14.68;;;4.80;;
79220;SDS011;72175;52.118;5.406;2023-10-13T15:12:44;13.15;;;2.90;;
79220;SDS011;72175;52.118;5.406;2023-10-13T15:15:11;12.73;;;4.45;;
79220;SDS011;72175;52.118;5.406;2023-10-13T15:17:42;11.18;;;2.92;;
79220;SDS011;72175;52.118;5.406;2023-10-13T15:20:10;13.05;;;3.08;;
79220;SDS011;72175;52.118;5.406;2023-10-13T15:22:42;13.18;;;3.08;;
79220;SDS011;72175;52.118;5.406;2023-10-13T15:25:09;13.05;;;3.42;;
79220;SDS011;72175;52.118;5.406;2023-10-13T15:27:58;13.73;;;2.92;;
79220;SDS011;72175;52.118;5.406;2023-10-13T15:30:29;11.75;;;3.30;;
79220;SDS011;72175;52.118;5.406;2023-10-13T15:33:18;14.52;;;3.42;;
79220;SDS011;72175;52.118;5.406;2023-10-13T15:35:46;12.35;;;3.25;;
79220;SDS011;72175;52.118;5.406;2023-10-13T15:38:13;10.10;;;2.75;;
79220;SDS011;72175;52.118;5.406;2023-10-13T15:40:44;9.38;;;3.03;;
79220;SDS011;72175;52.118;5.406;2023-10-13T15:43:11;9.25;;;2.78;;
79220;SDS011;72175;52.118;5.406;2023-10-13T15:45:38;9.55;;;3.08;;
79220;SDS011;72175;52.118;5.406;2023-10-13T15:48:06;10.23;;;3.30;;
79220;SDS011;72175;52.118;5.406;2023-10-13T15:50:39;8.20;;;2.28;;
79220;SDS011;72175;52.118;5.406;2023-10-13T15:53:07;9.93;;;3.15;;
79220;SDS011;72175;52.118;5.406;2023-10-13T15:55:38;10.45;;;2.72;;
79220;SDS011;72175;52.118;5.406;2023-10-13T15:58:05;10.75;;;2.95;;
79220;SDS011;72175;52.118;5.406;2023-10-13T16:00:35;9.35;;;2.95;;
79220;SDS011;72175;52.118;5.406;2023-10-13T16:03:03;8.00;;;2.30;;
79220;SDS011;72175;52.118;5.406;2023-10-13T16:05:38;7.38;;;2.60;;
79220;SDS011;72175;52.118;5.406;2023-10-13T16:08:09;9.52;;;2.78;;
79220;SDS011;72175;52.118;5.406;2023-10-13T16:10:39;9.05;;;2.72;;